TimeEST,TemperatureF,Dew PointF,Humidity,Sea Level PressureIn,VisibilityMPH,Wind Direction,Wind SpeedMPH,Gust SpeedMPH,PrecipitationIn,Events,Conditions,WindDirDegrees,DateUTC
12:15 AM,27.5,22.1,80,29.91,10.0,WNW,9.2,26.5,N/A,,Mostly Cloudy,300,2012-11-24 05:15:00
12:36 AM,27.5,21.7,79,29.91,10.0,WNW,15.0,24.2,N/A,,Mostly Cloudy,300,2012-11-24 05:36:00
12:56 AM,27.1,21.2,78,29.92,10.0,NW,15.0,23.0,N/A,,Scattered Clouds,310,2012-11-24 05:56:00
1:15 AM,27.1,21.4,79,29.92,10.0,NW,15.0,24.2,N/A,,Scattered Clouds,310,2012-11-24 06:15:00
1:36 AM,27.0,21.2,79,29.92,10.0,NW,16.1,24.2,N/A,,Mostly Cloudy,310,2012-11-24 06:36:00
1:56 AM,27.0,21.2,79,29.92,10.0,NW,17.3,23.0,N/A,,Scattered Clouds,310,2012-11-24 06:56:00
2:36 AM,26.8,21.2,79,29.94,10.0,NW,15.0,24.2,N/A,,Clear,310,2012-11-24 07:36:00
3:15 AM,26.6,21.9,82,29.95,10.0,NW,13.8,24.2,N/A,Snow,Light Snow,310,2012-11-24 08:15:00
3:56 AM,26.6,21.9,82,29.96,10.0,NW,11.5,19.6,N/A,,Scattered Clouds,310,2012-11-24 08:56:00
4:15 AM,26.6,21.0,79,29.96,10.0,NW,12.7,23.0,N/A,,Scattered Clouds,310,2012-11-24 09:15:00
4:36 AM,26.4,20.7,79,29.96,10.0,NW,16.1,23.0,N/A,,Scattered Clouds,310,2012-11-24 09:36:00
4:56 AM,26.6,20.5,78,29.97,10.0,NW,17.3,25.3,N/A,,Mostly Cloudy,310,2012-11-24 09:56:00
5:15 AM,26.6,20.8,79,29.97,7.0,WNW,13.8,25.3,N/A,Snow,Light Snow,300,2012-11-24 10:15:00
5:36 AM,26.2,21.0,81,29.97,7.0,NW,15.0,21.9,N/A,Snow,Light Snow,310,2012-11-24 10:36:00
5:56 AM,26.2,20.5,79,29.98,7.0,NW,16.1,27.6,N/A,Snow,Light Snow,320,2012-11-24 10:56:00
6:15 AM,26.4,18.5,72,29.99,10.0,NNW,16.1,23.0,N/A,,Overcast,340,2012-11-24 11:15:00
6:36 AM,26.2,17.4,69,30.00,10.0,NNW,13.8,31.1,N/A,,Overcast,330,2012-11-24 11:36:00
6:55 AM,25.9,16.9,69,30.00,10.0,NW,18.4,29.9,N/A,,Overcast,320,2012-11-24 11:55:00
7:15 AM,26.1,16.7,68,30.01,10.0,NW,16.1,29.9,N/A,,Overcast,310,2012-11-24 12:15:00
7:36 AM,25.7,16.3,68,30.02,10.0,NNW,16.1,24.2,N/A,,Overcast,330,2012-11-24 12:36:00
7:55 AM,25.3,16.0,68,30.02,10.0,NW,19.6,29.9,N/A,,Overcast,320,2012-11-24 12:55:00
8:15 AM,25.2,16.3,69,30.02,10.0,NW,12.7,18.4,N/A,,Overcast,320,2012-11-24 13:15:00
8:36 AM,25.3,16.5,69,30.03,10.0,NW,17.3,25.3,N/A,,Overcast,310,2012-11-24 13:36:00
8:55 AM,25.5,16.7,69,30.03,10.0,NW,18.4,24.2,N/A,,Overcast,310,2012-11-24 13:55:00
9:15 AM,25.3,16.3,69,30.03,10.0,WNW,17.3,27.6,N/A,,Overcast,300,2012-11-24 14:15:00
9:36 AM,25.5,16.2,68,30.04,10.0,NW,18.4,27.6,N/A,,Overcast,310,2012-11-24 14:36:00
9:55 AM,25.5,16.3,68,30.04,10.0,NW,18.4,25.3,N/A,,Overcast,310,2012-11-24 14:55:00
10:16 AM,25.5,15.6,66,30.05,10.0,NW,19.6,27.6,N/A,,Overcast,310,2012-11-24 15:16:00
10:36 AM,25.7,16.5,68,30.05,10.0,NW,19.6,26.5,N/A,,Overcast,310,2012-11-24 15:36:00
10:55 AM,25.7,16.2,67,30.05,10.0,NNW,15.0,25.3,N/A,,Overcast,330,2012-11-24 15:55:00
11:16 AM,26.2,15.4,64,30.05,10.0,NNW,13.8,24.2,N/A,,Overcast,330,2012-11-24 16:16:00
11:36 AM,26.2,15.1,63,30.05,10.0,NW,16.1,24.2,N/A,,Overcast,310,2012-11-24 16:36:00
11:55 AM,26.4,15.1,62,30.04,10.0,NW,11.5,20.7,N/A,,Overcast,320,2012-11-24 16:55:00
12:16 PM,26.6,15.6,63,30.03,10.0,NW,16.1,21.9,N/A,,Overcast,310,2012-11-24 17:16:00
12:35 PM,26.6,16.2,65,30.03,10.0,WNW,12.7,18.4,N/A,,Overcast,300,2012-11-24 17:35:00
12:56 PM,26.6,16.2,65,30.02,10.0,North,12.7,19.6,N/A,,Overcast,350,2012-11-24 17:56:00
1:16 PM,26.4,15.6,64,30.03,10.0,NW,11.5,19.6,N/A,,Overcast,320,2012-11-24 18:16:00
1:35 PM,26.6,15.8,64,30.03,10.0,NW,12.7,17.3,N/A,,Overcast,310,2012-11-24 18:35:00
1:56 PM,26.6,15.8,64,30.02,10.0,NW,9.2,-,N/A,,Overcast,310,2012-11-24 18:56:00
2:16 PM,26.6,15.8,64,30.02,10.0,NW,8.1,-,N/A,,Overcast,310,2012-11-24 19:16:00
2:35 PM,26.8,16.2,64,30.02,10.0,NW,11.5,20.7,N/A,,Overcast,310,2012-11-24 19:35:00
2:56 PM,26.6,16.5,66,30.02,10.0,NW,15.0,21.9,N/A,,Overcast,320,2012-11-24 19:56:00
3:16 PM,26.4,16.3,66,30.02,10.0,WNW,12.7,19.6,N/A,,Overcast,300,2012-11-24 20:16:00
3:35 PM,26.4,16.7,67,30.02,10.0,NW,10.4,20.7,N/A,,Overcast,320,2012-11-24 20:35:00
3:56 PM,26.2,16.7,67,30.02,10.0,NW,13.8,20.7,N/A,,Overcast,310,2012-11-24 20:56:00
4:16 PM,26.2,17.2,69,30.02,10.0,NW,9.2,17.3,N/A,,Overcast,310,2012-11-24 21:16:00
4:35 PM,26.1,17.2,69,30.02,10.0,NW,10.4,16.1,N/A,,Overcast,320,2012-11-24 21:35:00
4:56 PM,26.1,17.4,70,30.02,10.0,NW,9.2,16.1,N/A,,Overcast,310,2012-11-24 21:56:00
5:16 PM,26.1,16.7,68,30.02,10.0,WNW,9.2,18.4,N/A,,Overcast,300,2012-11-24 22:16:00
5:35 PM,25.7,16.2,67,30.02,10.0,NW,9.2,20.7,N/A,,Overcast,310,2012-11-24 22:35:00
5:56 PM,25.7,16.0,67,30.01,10.0,NW,10.4,-,N/A,,Overcast,310,2012-11-24 22:56:00
6:16 PM,25.7,16.3,68,30.01,10.0,NW,8.1,-,N/A,,Overcast,320,2012-11-24 23:16:00
6:35 PM,25.7,15.4,65,30.01,10.0,NW,12.7,18.4,N/A,,Overcast,320,2012-11-24 23:35:00
6:56 PM,25.7,15.8,66,30.00,10.0,NW,10.4,17.3,N/A,,Overcast,320,2012-11-24 23:56:00
7:15 PM,25.7,15.8,66,30.00,10.0,NW,9.2,16.1,N/A,,Overcast,320,2012-11-25 00:15:00
7:35 PM,25.7,16.2,67,29.99,10.0,NNW,9.2,-,N/A,,Overcast,340,2012-11-25 00:35:00
7:56 PM,25.7,16.5,68,29.98,10.0,NW,9.2,-,N/A,,Overcast,320,2012-11-25 00:56:00
8:15 PM,25.7,16.9,69,29.97,10.0,NW,6.9,-,N/A,,Overcast,320,2012-11-25 01:15:00
8:35 PM,25.7,16.5,68,29.97,10.0,WNW,6.9,-,N/A,,Overcast,300,2012-11-25 01:35:00
8:56 PM,25.7,16.2,67,29.97,10.0,NW,8.1,-,N/A,,Overcast,310,2012-11-25 01:56:00
9:15 PM,25.7,16.5,68,29.96,10.0,NW,10.4,-,N/A,,Overcast,310,2012-11-25 02:15:00
9:36 PM,25.7,16.7,69,29.95,10.0,NW,8.1,-,N/A,,Overcast,320,2012-11-25 02:36:00
9:56 PM,25.7,16.7,69,29.93,10.0,NNW,5.8,-,N/A,,Overcast,340,2012-11-25 02:56:00
10:15 PM,25.7,17.1,70,29.93,10.0,North,8.1,-,N/A,,Overcast,350,2012-11-25 03:15:00
10:36 PM,25.7,17.4,71,29.93,10.0,North,6.9,-,N/A,,Overcast,350,2012-11-25 03:36:00
10:56 PM,26.2,17.4,69,29.92,10.0,NNW,5.8,-,N/A,,Overcast,330,2012-11-25 03:56:00
11:15 PM,26.4,17.8,70,29.92,10.0,NNW,4.6,-,N/A,,Overcast,340,2012-11-25 04:15:00
11:36 PM,26.6,18.0,70,29.92,10.0,NNW,5.8,-,N/A,,Overcast,340,2012-11-25 04:36:00
11:56 PM,26.6,18.3,71,29.92,10.0,Calm,Calm,-,N/A,,Overcast,0,2012-11-25 04:56:00